sensor_id;sensor_type;location;lat;lon;timestamp;temperature;humidity
66190;DHT22;52992;52.084;5.412;2023-05-10T00:01:00;18.00;82.60
66190;DHT22;52992;52.084;5.412;2023-05-10T00:03:27;18.00;82.40
66190;DHT22;52992;52.084;5.412;2023-05-10T00:05:54;18.00;82.40
66190;DHT22;52992;52.084;5.412;2023-05-10T00:08:21;18.00;82.30
66190;DHT22;52992;52.084;5.412;2023-05-10T00:10:48;18.00;82.30
66190;DHT22;52992;52.084;5.412;2023-05-10T00:13:15;18.00;82.40
66190;DHT22;52992;52.084;5.412;2023-05-10T00:15:42;18.00;82.40
66190;DHT22;52992;52.084;5.412;2023-05-10T00:18:09;18.00;82.30
66190;DHT22;52992;52.084;5.412;2023-05-10T00:20:36;18.00;82.10
66190;DHT22;52992;52.084;5.412;2023-05-10T00:23:03;17.90;82.50
66190;DHT22;52992;52.084;5.412;2023-05-10T00:25:30;17.90;82.90
66190;DHT22;52992;52.084;5.412;2023-05-10T00:27:57;17.90;82.80
66190;DHT22;52992;52.084;5.412;2023-05-10T00:30:24;17.90;83.00
66190;DHT22;52992;52.084;5.412;2023-05-10T00:32:51;17.90;82.60
66190;DHT22;52992;52.084;5.412;2023-05-10T00:35:18;18.00;82.80
66190;DHT22;52992;52.084;5.412;2023-05-10T00:37:45;17.90;82.60
66190;DHT22;52992;52.084;5.412;2023-05-10T00:40:13;17.90;82.30
66190;DHT22;52992;52.084;5.412;2023-05-10T00:42:43;17.90;82.60
66190;DHT22;52992;52.084;5.412;2023-05-10T00:45:10;17.80;82.40
66190;DHT22;52992;52.084;5.412;2023-05-10T00:47:37;17.90;82.60
66190;DHT22;52992;52.084;5.412;2023-05-10T00:50:05;17.90;82.80
66190;DHT22;52992;52.084;5.412;2023-05-10T00:52:32;17.80;82.30
66190;DHT22;52992;52.084;5.412;2023-05-10T00:55:00;17.80;82.40
66190;DHT22;52992;52.084;5.412;2023-05-10T00:57:27;17.80;82.30
66190;DHT22;52992;52.084;5.412;2023-05-10T00:59:54;17.80;82.30
66190;DHT22;52992;52.084;5.412;2023-05-10T01:02:20;17.80;82.50
66190;DHT22;52992;52.084;5.412;2023-05-10T01:04:48;17.80;82.40
66190;DHT22;52992;52.084;5.412;2023-05-10T01:07:16;17.80;82.50
66190;DHT22;52992;52.084;5.412;2023-05-10T01:09:43;17.80;82.80
66190;DHT22;52992;52.084;5.412;2023-05-10T01:12:10;17.80;82.80
66190;DHT22;52992;52.084;5.412;2023-05-10T01:14:38;17.90;82.40
66190;DHT22;52992;52.084;5.412;2023-05-10T01:17:06;17.80;82.20
66190;DHT22;52992;52.084;5.412;2023-05-10T01:19:34;17.90;82.50
66190;DHT22;52992;52.084;5.412;2023-05-10T01:25:11;17.80;82.50
66190;DHT22;52992;52.084;5.412;2023-05-10T01:31:08;17.80;82.30
66190;DHT22;52992;52.084;5.412;2023-05-10T01:42:26;17.70;82.70
66190;DHT22;52992;52.084;5.412;2023-05-10T01:45:22;17.70;82.50
66190;DHT22;52992;52.084;5.412;2023-05-10T01:48:06;17.70;82.50
66190;DHT22;52992;52.084;5.412;2023-05-10T01:50:37;17.70;82.60
66190;DHT22;52992;52.084;5.412;2023-05-10T01:53:07;17.70;82.40
66190;DHT22;52992;52.084;5.412;2023-05-10T01:55:39;17.70;82.60
66190;DHT22;52992;52.084;5.412;2023-05-10T01:58:10;17.70;82.20
66190;DHT22;52992;52.084;5.412;2023-05-10T02:00:40;17.70;82.40
66190;DHT22;52992;52.084;5.412;2023-05-10T02:03:10;17.70;82.30
66190;DHT22;52992;52.084;5.412;2023-05-10T02:05:38;17.60;82.40
66190;DHT22;52992;52.084;5.412;2023-05-10T02:08:06;17.60;82.20
66190;DHT22;52992;52.084;5.412;2023-05-10T02:10:36;17.60;82.00
66190;DHT22;52992;52.084;5.412;2023-05-10T02:13:05;17.60;82.20
66190;DHT22;52992;52.084;5.412;2023-05-10T02:15:34;17.60;82.10
66190;DHT22;52992;52.084;5.412;2023-05-10T02:18:02;17.50;82.00
66190;DHT22;52992;52.084;5.412;2023-05-10T02:20:31;17.50;82.20
66190;DHT22;52992;52.084;5.412;2023-05-10T02:22:59;17.60;82.00
66190;DHT22;52992;52.084;5.412;2023-05-10T02:25:29;17.50;82.30
66190;DHT22;52992;52.084;5.412;2023-05-10T02:28:00;17.60;82.00
66190;DHT22;52992;52.084;5.412;2023-05-10T02:30:29;17.50;81.40
66190;DHT22;52992;52.084;5.412;2023-05-10T02:32:58;17.40;81.70
66190;DHT22;52992;52.084;5.412;2023-05-10T02:35:26;17.40;82.10
66190;DHT22;52992;52.084;5.412;2023-05-10T02:37:54;17.40;82.10
66190;DHT22;52992;52.084;5.412;2023-05-10T02:40:22;17.40;82.10
66190;DHT22;52992;52.084;5.412;2023-05-10T02:42:56;17.40;81.80
66190;DHT22;52992;52.084;5.412;2023-05-10T02:45:25;17.40;81.40
66190;DHT22;52992;52.084;5.412;2023-05-10T02:47:55;17.40;81.70
66190;DHT22;52992;52.084;5.412;2023-05-10T02:50:26;17.40;81.30
66190;DHT22;52992;52.084;5.412;2023-05-10T02:52:59;17.30;81.60
66190;DHT22;52992;52.084;5.412;2023-05-10T02:55:33;17.30;81.30
66190;DHT22;52992;52.084;5.412;2023-05-10T02:58:03;17.20;81.10
66190;DHT22;52992;52.084;5.412;2023-05-10T03:00:31;17.20;81.50
66190;DHT22;52992;52.084;5.412;2023-05-10T03:02:58;17.20;81.20
66190;DHT22;52992;52.084;5.412;2023-05-10T03:05:25;17.10;81.00
66190;DHT22;52992;52.084;5.412;2023-05-10T03:07:53;17.10;80.80
66190;DHT22;52992;52.084;5.412;2023-05-10T03:10:24;17.00;81.00
66190;DHT22;52992;52.084;5.412;2023-05-10T03:18:53;17.00;80.90
66190;DHT22;52992;52.084;5.412;2023-05-10T03:21:22;16.90;81.20
66190;DHT22;52992;52.084;5.412;2023-05-10T03:23:59;16.90;81.20
66190;DHT22;52992;52.084;5.412;2023-05-10T03:26:29;17.00;81.00
66190;DHT22;52992;52.084;5.412;2023-05-10T03:29:05;16.90;80.80
66190;DHT22;52992;52.084;5.412;2023-05-10T03:31:33;16.90;80.80
66190;DHT22;52992;52.084;5.412;2023-05-10T03:34:00;16.90;81.60
66190;DHT22;52992;52.084;5.412;2023-05-10T03:36:27;16.90;80.80
66190;DHT22;52992;52.084;5.412;2023-05-10T03:38:54;16.90;80.80
66190;DHT22;52992;52.084;5.412;2023-05-10T03:41:22;16.90;80.60
66190;DHT22;52992;52.084;5.412;2023-05-10T03:43:48;16.90;80.50
66190;DHT22;52992;52.084;5.412;2023-05-10T03:46:15;17.00;80.70
66190;DHT22;52992;52.084;5.412;2023-05-10T03:48:43;17.00;80.90
66190;DHT22;52992;52.084;5.412;2023-05-10T03:51:10;17.00;81.00
66190;DHT22;52992;52.084;5.412;2023-05-10T03:53:38;16.90;81.30
66190;DHT22;52992;52.084;5.412;2023-05-10T03:56:06;16.90;81.40
66190;DHT22;52992;52.084;5.412;2023-05-10T03:58:32;16.90;81.40
66190;DHT22;52992;52.084;5.412;2023-05-10T04:00:59;17.00;81.50
66190;DHT22;52992;52.084;5.412;2023-05-10T04:03:26;17.00;81.40
66190;DHT22;52992;52.084;5.412;2023-05-10T04:06:03;17.10;81.00
66190;DHT22;52992;52.084;5.412;2023-05-10T04:08:31;17.00;80.60
66190;DHT22;52992;52.084;5.412;2023-05-10T04:11:08;17.00;80.80
66190;DHT22;52992;52.084;5.412;2023-05-10T04:13:35;17.10;80.60
66190;DHT22;52992;52.084;5.412;2023-05-10T04:16:02;17.10;81.50
66190;DHT22;52992;52.084;5.412;2023-05-10T04:18:30;17.10;81.00
66190;DHT22;52992;52.084;5.412;2023-05-10T04:20:57;17.10;80.60
66190;DHT22;52992;52.084;5.412;2023-05-10T04:23:24;17.10;80.50
66190;DHT22;52992;52.084;5.412;2023-05-10T04:25:51;17.10;80.70
66190;DHT22;52992;52.084;5.412;2023-05-10T04:28:18;17.10;80.60
66190;DHT22;52992;52.084;5.412;2023-05-10T04:30:45;17.20;80.40
66190;DHT22;52992;52.084;5.412;2023-05-10T04:33:12;17.20;80.20
66190;DHT22;52992;52.084;5.412;2023-05-10T04:35:39;17.20;80.10
66190;DHT22;52992;52.084;5.412;2023-05-10T04:38:06;17.20;80.10
66190;DHT22;52992;52.084;5.412;2023-05-10T04:40:33;17.20;80.20
66190;DHT22;52992;52.084;5.412;2023-05-10T04:43:00;17.20;80.10
66190;DHT22;52992;52.084;5.412;2023-05-10T04:45:28;17.20;79.80
66190;DHT22;52992;52.084;5.412;2023-05-10T04:47:54;17.20;79.80
66190;DHT22;52992;52.084;5.412;2023-05-10T04:50:22;17.20;79.80
66190;DHT22;52992;52.084;5.412;2023-05-10T04:52:48;17.20;79.60
66190;DHT22;52992;52.084;5.412;2023-05-10T04:55:15;17.20;80.00
66190;DHT22;52992;52.084;5.412;2023-05-10T04:57:42;17.30;79.60
66190;DHT22;52992;52.084;5.412;2023-05-10T05:00:10;17.20;79.40
66190;DHT22;52992;52.084;5.412;2023-05-10T05:02:37;17.20;79.50
66190;DHT22;52992;52.084;5.412;2023-05-10T05:05:04;17.20;79.50
66190;DHT22;52992;52.084;5.412;2023-05-10T05:07:31;17.30;79.30
66190;DHT22;52992;52.084;5.412;2023-05-10T05:09:58;17.30;79.50
66190;DHT22;52992;52.084;5.412;2023-05-10T05:12:25;17.30;79.20
66190;DHT22;52992;52.084;5.412;2023-05-10T05:14:52;17.30;79.40
66190;DHT22;52992;52.084;5.412;2023-05-10T05:17:19;17.30;79.10
66190;DHT22;52992;52.084;5.412;2023-05-10T05:19:46;17.30;79.00
66190;DHT22;52992;52.084;5.412;2023-05-10T05:22:12;17.30;78.80
66190;DHT22;52992;52.084;5.412;2023-05-10T05:24:39;17.30;79.20
66190;DHT22;52992;52.084;5.412;2023-05-10T05:27:06;17.40;79.10
66190;DHT22;52992;52.084;5.412;2023-05-10T05:29:33;17.40;78.70
66190;DHT22;52992;52.084;5.412;2023-05-10T05:32:00;17.40;78.70
66190;DHT22;52992;52.084;5.412;2023-05-10T05:34:27;17.40;78.70
66190;DHT22;52992;52.084;5.412;2023-05-10T05:36:54;17.50;78.80
66190;DHT22;52992;52.084;5.412;2023-05-10T05:39:21;17.50;78.50
66190;DHT22;52992;52.084;5.412;2023-05-10T05:41:48;17.50;78.60
66190;DHT22;52992;52.084;5.412;2023-05-10T05:44:15;17.50;78.50
66190;DHT22;52992;52.084;5.412;2023-05-10T05:46:42;17.60;78.40
66190;DHT22;52992;52.084;5.412;2023-05-10T05:49:09;17.60;78.30
66190;DHT22;52992;52.084;5.412;2023-05-10T05:51:36;17.60;78.30
66190;DHT22;52992;52.084;5.412;2023-05-10T05:54:03;17.70;78.00
66190;DHT22;52992;52.084;5.412;2023-05-10T05:56:30;17.70;77.70
66190;DHT22;52992;52.084;5.412;2023-05-10T05:58:57;17.70;78.50
66190;DHT22;52992;52.084;5.412;2023-05-10T06:01:24;17.60;77.70
66190;DHT22;52992;52.084;5.412;2023-05-10T06:03:51;17.60;77.70
66190;DHT22;52992;52.084;5.412;2023-05-10T06:06:19;17.60;77.60
66190;DHT22;52992;52.084;5.412;2023-05-10T06:08:46;17.50;77.90
66190;DHT22;52992;52.084;5.412;2023-05-10T06:11:13;17.60;77.60
66190;DHT22;52992;52.084;5.412;2023-05-10T06:13:39;17.50;77.50
66190;DHT22;52992;52.084;5.412;2023-05-10T06:16:06;17.50;78.30
66190;DHT22;52992;52.084;5.412;2023-05-10T06:18:33;17.50;77.40
66190;DHT22;52992;52.084;5.412;2023-05-10T06:21:01;17.50;77.60
66190;DHT22;52992;52.084;5.412;2023-05-10T06:23:28;17.50;77.50
66190;DHT22;52992;52.084;5.412;2023-05-10T06:25:55;17.50;77.30
66190;DHT22;52992;52.084;5.412;2023-05-10T06:28:22;17.50;77.10
66190;DHT22;52992;52.084;5.412;2023-05-10T06:30:49;17.50;77.10
66190;DHT22;52992;52.084;5.412;2023-05-10T06:33:15;17.50;76.90
66190;DHT22;52992;52.084;5.412;2023-05-10T06:35:42;17.40;75.40
66190;DHT22;52992;52.084;5.412;2023-05-10T06:38:09;17.30;76.50
66190;DHT22;52992;52.084;5.412;2023-05-10T06:40:36;17.30;76.50
66190;DHT22;52992;52.084;5.412;2023-05-10T06:43:03;17.30;76.60
66190;DHT22;52992;52.084;5.412;2023-05-10T06:45:29;17.30;75.90
66190;DHT22;52992;52.084;5.412;2023-05-10T06:47:56;17.30;76.30
66190;DHT22;52992;52.084;5.412;2023-05-10T06:50:23;17.30;76.50
66190;DHT22;52992;52.084;5.412;2023-05-10T06:52:50;17.30;76.60
66190;DHT22;52992;52.084;5.412;2023-05-10T06:55:18;17.40;76.50
66190;DHT22;52992;52.084;5.412;2023-05-10T06:57:45;17.40;76.40
66190;DHT22;52992;52.084;5.412;2023-05-10T07:00:13;17.60;76.50
66190;DHT22;52992;52.084;5.412;2023-05-10T07:02:40;17.60;76.30
66190;DHT22;52992;52.084;5.412;2023-05-10T07:05:07;17.70;76.20
66190;DHT22;52992;52.084;5.412;2023-05-10T07:07:35;17.80;75.60
66190;DHT22;52992;52.084;5.412;2023-05-10T07:10:02;17.80;75.70
66190;DHT22;52992;52.084;5.412;2023-05-10T07:12:29;17.80;75.50
66190;DHT22;52992;52.084;5.412;2023-05-10T07:14:56;17.80;75.10
66190;DHT22;52992;52.084;5.412;2023-05-10T07:17:23;17.80;75.30
66190;DHT22;52992;52.084;5.412;2023-05-10T07:19:50;17.70;74.90
66190;DHT22;52992;52.084;5.412;2023-05-10T07:22:17;17.70;75.10
66190;DHT22;52992;52.084;5.412;2023-05-10T07:24:44;17.70;75.20
66190;DHT22;52992;52.084;5.412;2023-05-10T07:27:11;17.80;75.00
66190;DHT22;52992;52.084;5.412;2023-05-10T07:29:39;17.80;74.60
66190;DHT22;52992;52.084;5.412;2023-05-10T07:32:06;17.80;74.80
66190;DHT22;52992;52.084;5.412;2023-05-10T07:34:33;17.80;75.00
66190;DHT22;52992;52.084;5.412;2023-05-10T07:37:00;17.80;74.80
66190;DHT22;52992;52.084;5.412;2023-05-10T07:39:27;17.90;75.00
66190;DHT22;52992;52.084;5.412;2023-05-10T07:41:55;17.90;74.90
66190;DHT22;52992;52.084;5.412;2023-05-10T07:44:22;17.90;74.90
66190;DHT22;52992;52.084;5.412;2023-05-10T07:46:50;17.90;74.90
66190;DHT22;52992;52.084;5.412;2023-05-10T07:49:17;17.90;74.90
66190;DHT22;52992;52.084;5.412;2023-05-10T07:51:43;18.00;74.60
66190;DHT22;52992;52.084;5.412;2023-05-10T07:54:10;18.00;74.80
66190;DHT22;52992;52.084;5.412;2023-05-10T07:56:38;18.00;74.30
66190;DHT22;52992;52.084;5.412;2023-05-10T07:59:06;18.10;74.30
66190;DHT22;52992;52.084;5.412;2023-05-10T08:01:35;18.10;74.20
66190;DHT22;52992;52.084;5.412;2023-05-10T08:04:02;18.10;74.30
66190;DHT22;52992;52.084;5.412;2023-05-10T08:06:29;18.10;74.30
66190;DHT22;52992;52.084;5.412;2023-05-10T08:08:57;18.10;74.30
66190;DHT22;52992;52.084;5.412;2023-05-10T08:11:24;18.00;74.20
66190;DHT22;52992;52.084;5.412;2023-05-10T08:13:52;18.00;74.20
66190;DHT22;52992;52.084;5.412;2023-05-10T08:16:20;18.00;74.20
66190;DHT22;52992;52.084;5.412;2023-05-10T08:18:47;18.10;74.30
66190;DHT22;52992;52.084;5.412;2023-05-10T08:21:14;18.00;74.00
66190;DHT22;52992;52.084;5.412;2023-05-10T08:23:42;18.10;74.30
66190;DHT22;52992;52.084;5.412;2023-05-10T08:26:11;18.10;74.30
66190;DHT22;52992;52.084;5.412;2023-05-10T08:28:38;18.20;74.30
66190;DHT22;52992;52.084;5.412;2023-05-10T08:31:05;18.20;74.10
66190;DHT22;52992;52.084;5.412;2023-05-10T08:33:32;18.30;74.00
66190;DHT22;52992;52.084;5.412;2023-05-10T08:35:59;18.30;74.10
66190;DHT22;52992;52.084;5.412;2023-05-10T08:38:26;18.30;73.90
66190;DHT22;52992;52.084;5.412;2023-05-10T08:40:54;18.40;73.80
66190;DHT22;52992;52.084;5.412;2023-05-10T08:43:29;18.40;73.80
66190;DHT22;52992;52.084;5.412;2023-05-10T08:46:00;18.50;73.70
66190;DHT22;52992;52.084;5.412;2023-05-10T08:48:29;18.40;73.80
66190;DHT22;52992;52.084;5.412;2023-05-10T08:50:58;18.50;73.80
66190;DHT22;52992;52.084;5.412;2023-05-10T08:53:27;18.40;73.70
66190;DHT22;52992;52.084;5.412;2023-05-10T08:55:55;18.40;73.50
66190;DHT22;52992;52.084;5.412;2023-05-10T08:58:22;18.40;73.00
66190;DHT22;52992;52.084;5.412;2023-05-10T09:00:49;18.30;72.30
66190;DHT22;52992;52.084;5.412;2023-05-10T09:03:19;18.20;72.80
66190;DHT22;52992;52.084;5.412;2023-05-10T09:05:46;18.10;72.70
66190;DHT22;52992;52.084;5.412;2023-05-10T09:08:14;18.10;72.90
66190;DHT22;52992;52.084;5.412;2023-05-10T09:10:44;18.00;73.10
66190;DHT22;52992;52.084;5.412;2023-05-10T09:13:11;18.00;72.90
66190;DHT22;52992;52.084;5.412;2023-05-10T09:15:38;18.10;73.10
66190;DHT22;52992;52.084;5.412;2023-05-10T09:18:05;18.20;73.00
66190;DHT22;52992;52.084;5.412;2023-05-10T09:20:32;18.30;73.00
66190;DHT22;52992;52.084;5.412;2023-05-10T09:22:59;18.30;73.00
66190;DHT22;52992;52.084;5.412;2023-05-10T09:25:26;18.50;73.00
66190;DHT22;52992;52.084;5.412;2023-05-10T09:27:53;18.50;73.20
66190;DHT22;52992;52.084;5.412;2023-05-10T09:30:25;18.60;73.10
66190;DHT22;52992;52.084;5.412;2023-05-10T09:32:52;18.70;73.00
66190;DHT22;52992;52.084;5.412;2023-05-10T09:35:22;18.80;72.70
66190;DHT22;52992;52.084;5.412;2023-05-10T09:37:53;18.80;72.80
66190;DHT22;52992;52.084;5.412;2023-05-10T09:40:23;18.90;72.70
66190;DHT22;52992;52.084;5.412;2023-05-10T09:45:23;19.30;72.60
66190;DHT22;52992;52.084;5.412;2023-05-10T09:47:50;19.50;72.30
66190;DHT22;52992;52.084;5.412;2023-05-10T09:50:18;19.60;71.70
66190;DHT22;52992;52.084;5.412;2023-05-10T09:52:50;19.70;71.30
66190;DHT22;52992;52.084;5.412;2023-05-10T09:55:22;19.70;71.30
66190;DHT22;52992;52.084;5.412;2023-05-10T09:57:59;19.70;71.60
66190;DHT22;52992;52.084;5.412;2023-05-10T10:00:27;19.70;71.30
66190;DHT22;52992;52.084;5.412;2023-05-10T10:02:59;19.70;71.10
66190;DHT22;52992;52.084;5.412;2023-05-10T10:05:33;19.70;71.30
66190;DHT22;52992;52.084;5.412;2023-05-10T10:08:05;19.70;71.30
66190;DHT22;52992;52.084;5.412;2023-05-10T10:10:33;19.60;71.20
66190;DHT22;52992;52.084;5.412;2023-05-10T10:13:00;19.70;71.20
66190;DHT22;52992;52.084;5.412;2023-05-10T10:15:28;19.70;71.00
66190;DHT22;52992;52.084;5.412;2023-05-10T10:17:54;19.80;70.60
66190;DHT22;52992;52.084;5.412;2023-05-10T10:20:22;20.00;70.50
66190;DHT22;52992;52.084;5.412;2023-05-10T10:22:49;20.20;70.10
66190;DHT22;52992;52.084;5.412;2023-05-10T10:25:18;20.30;70.30
66190;DHT22;52992;52.084;5.412;2023-05-10T10:30:38;20.40;70.10
66190;DHT22;52992;52.084;5.412;2023-05-10T10:33:30;20.40;70.00
66190;DHT22;52992;52.084;5.412;2023-05-10T10:36:02;20.30;69.20
66190;DHT22;52992;52.084;5.412;2023-05-10T10:38:59;20.20;69.70
66190;DHT22;52992;52.084;5.412;2023-05-10T10:41:29;20.10;70.50
66190;DHT22;52992;52.084;5.412;2023-05-10T10:47:07;19.90;70.50
66190;DHT22;52992;52.084;5.412;2023-05-10T10:49:43;19.80;70.50
66190;DHT22;52992;52.084;5.412;2023-05-10T10:52:25;19.70;70.70
66190;DHT22;52992;52.084;5.412;2023-05-10T10:55:08;19.70;70.80
66190;DHT22;52992;52.084;5.412;2023-05-10T10:57:55;19.70;70.70
66190;DHT22;52992;52.084;5.412;2023-05-10T11:00:32;19.70;70.60
66190;DHT22;52992;52.084;5.412;2023-05-10T11:03:10;19.70;70.50
66190;DHT22;52992;52.084;5.412;2023-05-10T11:05:47;19.80;70.40
66190;DHT22;52992;52.084;5.412;2023-05-10T11:08:31;19.80;70.30
66190;DHT22;52992;52.084;5.412;2023-05-10T11:13:32;19.90;69.90
66190;DHT22;52992;52.084;5.412;2023-05-10T11:16:10;19.80;69.60
66190;DHT22;52992;52.084;5.412;2023-05-10T11:18:37;19.80;69.80
66190;DHT22;52992;52.084;5.412;2023-05-10T11:21:04;19.80;69.80
66190;DHT22;52992;52.084;5.412;2023-05-10T11:23:47;19.70;69.60
66190;DHT22;52992;52.084;5.412;2023-05-10T11:26:14;19.80;69.70
66190;DHT22;52992;52.084;5.412;2023-05-10T11:28:45;19.70;69.80
66190;DHT22;52992;52.084;5.412;2023-05-10T11:31:16;19.80;69.80
66190;DHT22;52992;52.084;5.412;2023-05-10T11:33:48;19.90;69.80
66190;DHT22;52992;52.084;5.412;2023-05-10T11:36:16;20.00;69.70
66190;DHT22;52992;52.084;5.412;2023-05-10T11:38:43;20.30;69.50
66190;DHT22;52992;52.084;5.412;2023-05-10T11:41:11;20.50;69.30
66190;DHT22;52992;52.084;5.412;2023-05-10T11:43:39;20.80;68.60
66190;DHT22;52992;52.084;5.412;2023-05-10T11:46:10;21.00;66.80
66190;DHT22;52992;52.084;5.412;2023-05-10T11:48:42;21.20;66.30
66190;DHT22;52992;52.084;5.412;2023-05-10T11:51:10;21.40;66.20
66190;DHT22;52992;52.084;5.412;2023-05-10T11:53:37;21.40;66.30
66190;DHT22;52992;52.084;5.412;2023-05-10T11:56:09;21.50;66.60
66190;DHT22;52992;52.084;5.412;2023-05-10T11:58:39;21.50;66.30
66190;DHT22;52992;52.084;5.412;2023-05-10T12:01:07;21.40;65.50
66190;DHT22;52992;52.084;5.412;2023-05-10T12:03:34;21.40;65.60
66190;DHT22;52992;52.084;5.412;2023-05-10T12:06:02;21.30;65.60
66190;DHT22;52992;52.084;5.412;2023-05-10T12:08:30;21.20;66.20
66190;DHT22;52992;52.084;5.412;2023-05-10T12:11:09;21.20;67.10
66190;DHT22;52992;52.084;5.412;2023-05-10T12:13:41;21.10;66.50
66190;DHT22;52992;52.084;5.412;2023-05-10T12:16:28;21.00;65.80
66190;DHT22;52992;52.084;5.412;2023-05-10T12:18:57;20.90;66.10
66190;DHT22;52992;52.084;5.412;2023-05-10T12:21:25;20.90;66.20
66190;DHT22;52992;52.084;5.412;2023-05-10T12:23:56;20.80;66.10
66190;DHT22;52992;52.084;5.412;2023-05-10T12:26:25;20.80;65.00
66190;DHT22;52992;52.084;5.412;2023-05-10T12:29:18;20.70;66.10
66190;DHT22;52992;52.084;5.412;2023-05-10T12:31:59;20.80;66.60
66190;DHT22;52992;52.084;5.412;2023-05-10T12:34:35;20.90;65.00
66190;DHT22;52992;52.084;5.412;2023-05-10T12:37:04;21.00;63.80
66190;DHT22;52992;52.084;5.412;2023-05-10T12:39:42;20.90;60.50
66190;DHT22;52992;52.084;5.412;2023-05-10T12:42:09;20.90;62.30
66190;DHT22;52992;52.084;5.412;2023-05-10T12:44:36;21.10;63.10
66190;DHT22;52992;52.084;5.412;2023-05-10T12:47:03;21.20;64.20
66190;DHT22;52992;52.084;5.412;2023-05-10T12:49:30;21.10;62.70
66190;DHT22;52992;52.084;5.412;2023-05-10T12:51:57;21.00;63.00
66190;DHT22;52992;52.084;5.412;2023-05-10T12:54:24;20.90;63.90
66190;DHT22;52992;52.084;5.412;2023-05-10T12:56:51;20.80;64.60
66190;DHT22;52992;52.084;5.412;2023-05-10T12:59:18;20.70;65.40
66190;DHT22;52992;52.084;5.412;2023-05-10T13:01:44;20.70;65.40
66190;DHT22;52992;52.084;5.412;2023-05-10T13:04:11;20.50;65.10
66190;DHT22;52992;52.084;5.412;2023-05-10T13:06:38;20.30;65.50
66190;DHT22;52992;52.084;5.412;2023-05-10T13:09:05;20.20;66.10
66190;DHT22;52992;52.084;5.412;2023-05-10T13:11:32;20.10;65.90
66190;DHT22;52992;52.084;5.412;2023-05-10T13:13:59;19.90;66.20
66190;DHT22;52992;52.084;5.412;2023-05-10T13:16:26;19.80;66.60
66190;DHT22;52992;52.084;5.412;2023-05-10T13:18:53;19.70;67.00
66190;DHT22;52992;52.084;5.412;2023-05-10T13:21:20;19.60;67.30
66190;DHT22;52992;52.084;5.412;2023-05-10T13:23:47;19.60;67.60
66190;DHT22;52992;52.084;5.412;2023-05-10T13:26:14;19.50;67.80
66190;DHT22;52992;52.084;5.412;2023-05-10T13:28:41;19.40;68.10
66190;DHT22;52992;52.084;5.412;2023-05-10T13:31:08;19.30;68.10
66190;DHT22;52992;52.084;5.412;2023-05-10T13:33:35;19.20;67.90
66190;DHT22;52992;52.084;5.412;2023-05-10T13:36:02;19.10;68.20
66190;DHT22;52992;52.084;5.412;2023-05-10T13:38:28;19.10;68.20
66190;DHT22;52992;52.084;5.412;2023-05-10T13:40:55;19.00;68.30
66190;DHT22;52992;52.084;5.412;2023-05-10T13:43:23;19.00;68.20
66190;DHT22;52992;52.084;5.412;2023-05-10T13:45:50;19.00;68.30
66190;DHT22;52992;52.084;5.412;2023-05-10T13:48:16;18.90;68.00
66190;DHT22;52992;52.084;5.412;2023-05-10T13:50:43;18.90;68.30
66190;DHT22;52992;52.084;5.412;2023-05-10T13:53:10;18.90;68.50
66190;DHT22;52992;52.084;5.412;2023-05-10T13:55:37;18.90;68.60
66190;DHT22;52992;52.084;5.412;2023-05-10T13:58:04;18.90;68.30
66190;DHT22;52992;52.084;5.412;2023-05-10T14:00:31;18.80;68.30
66190;DHT22;52992;52.084;5.412;2023-05-10T14:02:58;18.80;68.50
66190;DHT22;52992;52.084;5.412;2023-05-10T14:05:25;18.80;68.60
66190;DHT22;52992;52.084;5.412;2023-05-10T14:07:52;18.80;68.60
66190;DHT22;52992;52.084;5.412;2023-05-10T14:10:20;18.90;68.80
66190;DHT22;52992;52.084;5.412;2023-05-10T14:12:47;18.90;68.60
66190;DHT22;52992;52.084;5.412;2023-05-10T14:15:14;18.90;68.80
66190;DHT22;52992;52.084;5.412;2023-05-10T14:17:41;18.90;68.60
66190;DHT22;52992;52.084;5.412;2023-05-10T14:20:08;18.90;68.80
66190;DHT22;52992;52.084;5.412;2023-05-10T14:22:35;18.90;69.10
66190;DHT22;52992;52.084;5.412;2023-05-10T14:25:03;18.90;69.20
66190;DHT22;52992;52.084;5.412;2023-05-10T14:27:29;18.90;69.00
66190;DHT22;52992;52.084;5.412;2023-05-10T14:29:57;18.90;69.30
66190;DHT22;52992;52.084;5.412;2023-05-10T14:32:23;18.90;69.50
66190;DHT22;52992;52.084;5.412;2023-05-10T14:34:50;18.90;69.60
66190;DHT22;52992;52.084;5.412;2023-05-10T14:37:17;19.00;70.30
66190;DHT22;52992;52.084;5.412;2023-05-10T14:39:44;19.00;71.10
66190;DHT22;52992;52.084;5.412;2023-05-10T14:42:11;19.00;71.70
66190;DHT22;52992;52.084;5.412;2023-05-10T14:44:38;19.00;72.10
66190;DHT22;52992;52.084;5.412;2023-05-10T14:47:06;18.90;72.50
66190;DHT22;52992;52.084;5.412;2023-05-10T14:49:35;19.00;72.60
66190;DHT22;52992;52.084;5.412;2023-05-10T14:52:02;19.00;72.70
66190;DHT22;52992;52.084;5.412;2023-05-10T14:54:29;19.00;72.90
66190;DHT22;52992;52.084;5.412;2023-05-10T14:56:56;19.10;73.00
66190;DHT22;52992;52.084;5.412;2023-05-10T14:59:23;19.10;73.20
66190;DHT22;52992;52.084;5.412;2023-05-10T15:01:50;19.10;73.10
66190;DHT22;52992;52.084;5.412;2023-05-10T15:04:17;19.10;72.90
66190;DHT22;52992;52.084;5.412;2023-05-10T15:06:45;19.20;73.00
66190;DHT22;52992;52.084;5.412;2023-05-10T15:09:11;19.20;73.20
66190;DHT22;52992;52.084;5.412;2023-05-10T15:11:38;19.30;73.30
66190;DHT22;52992;52.084;5.412;2023-05-10T15:14:05;19.40;73.50
66190;DHT22;52992;52.084;5.412;2023-05-10T15:16:32;19.50;73.50
66190;DHT22;52992;52.084;5.412;2023-05-10T15:19:01;19.60;73.30
66190;DHT22;52992;52.084;5.412;2023-05-10T15:21:29;19.70;73.90
66190;DHT22;52992;52.084;5.412;2023-05-10T15:24:01;19.70;73.10
66190;DHT22;52992;52.084;5.412;2023-05-10T15:26:28;19.70;71.90
66190;DHT22;52992;52.084;5.412;2023-05-10T15:28:55;19.60;72.20
66190;DHT22;52992;52.084;5.412;2023-05-10T15:31:22;19.50;72.50
66190;DHT22;52992;52.084;5.412;2023-05-10T15:33:49;19.50;72.70
66190;DHT22;52992;52.084;5.412;2023-05-10T15:36:15;19.60;72.70
66190;DHT22;52992;52.084;5.412;2023-05-10T15:38:44;19.60;72.70
66190;DHT22;52992;52.084;5.412;2023-05-10T15:41:11;19.70;72.90
66190;DHT22;52992;52.084;5.412;2023-05-10T15:43:38;19.80;72.90
66190;DHT22;52992;52.084;5.412;2023-05-10T15:46:05;19.90;73.00
66190;DHT22;52992;52.084;5.412;2023-05-10T15:48:32;20.00;72.80
66190;DHT22;52992;52.084;5.412;2023-05-10T15:50:59;20.00;72.40
66190;DHT22;52992;52.084;5.412;2023-05-10T15:53:26;20.10;72.10
66190;DHT22;52992;52.084;5.412;2023-05-10T15:55:53;20.10;72.70
66190;DHT22;52992;52.084;5.412;2023-05-10T15:58:20;20.10;72.60
66190;DHT22;52992;52.084;5.412;2023-05-10T16:00:47;20.20;72.60
66190;DHT22;52992;52.084;5.412;2023-05-10T16:03:14;20.20;72.80
66190;DHT22;52992;52.084;5.412;2023-05-10T16:05:41;20.20;72.70
66190;DHT22;52992;52.084;5.412;2023-05-10T16:08:08;20.20;73.10
66190;DHT22;52992;52.084;5.412;2023-05-10T16:10:35;20.20;72.50